Time;durP1;ratioP1;P1;durP2;ratioP2;P2;SDS_P1;SDS_P2;PMS_P1;PMS_P2;Temp;Humidity;BMP_temperature;BMP_pressure;BME280_temperature;BME280_humidity;BME280_pressure;Samples;Min_cycle;Max_cycle;Signal;HPM_P1;HPM_P2
2023/04/19 00:02:43;;;;;;;8.55;7.75;;;;;;;7.83;100.00;102741.16;10415550;28;20043;-73
2023/04/19 00:07:44;;;;;;;12.95;9.50;;;;;;;7.83;100.00;102733.91;10397700;28;20057;-73
2023/04/19 00:12:44;;;;;;;10.15;8.30;;;;;;;7.81;100.00;102730.50;10415069;28;20033;-73
2023/04/19 00:17:44;;;;;;;9.77;8.77;;;;;;;7.79;100.00;102728.94;10414902;28;20119;-74
2023/04/19 00:22:45;;;;;;;14.75;9.05;;;;;;;7.83;100.00;102727.66;10397624;28;20092;-74
2023/04/19 00:27:45;;;;;;;7.40;6.65;;;;;;;7.84;100.00;102735.63;10396075;28;20037;-74
2023/04/19 00:32:46;;;;;;;13.77;8.48;;;;;;;7.95;100.00;102728.44;10396817;28;20439;-74
2023/04/19 00:37:46;;;;;;;13.45;7.85;;;;;;;7.86;100.00;102736.34;10414017;28;20037;-73
2023/04/19 00:42:46;;;;;;;9.88;8.88;;;;;;;7.88;100.00;102720.00;10396443;28;20059;-73
2023/04/19 00:47:47;;;;;;;10.35;8.82;;;;;;;7.77;100.00;102722.81;10413980;28;20505;-74
2023/04/19 00:52:47;;;;;;;15.20;8.68;;;;;;;7.74;100.00;102725.78;10413461;28;20131;-74
2023/04/19 00:57:48;;;;;;;11.18;8.73;;;;;;;7.69;100.00;102716.25;10413583;28;20480;-73
2023/04/19 01:02:48;;;;;;;11.63;8.85;;;;;;;7.67;100.00;102723.63;10395379;28;20053;-74
2023/04/19 01:07:48;;;;;;;16.00;9.32;;;;;;;7.73;100.00;102716.00;10413530;28;20052;-73
2023/04/19 01:12:49;;;;;;;10.25;9.23;;;;;;;7.76;100.00;102710.31;10395173;28;20129;-73
2023/04/19 01:17:49;;;;;;;14.32;10.23;;;;;;;7.70;100.00;102706.31;10394884;28;20420;-73
2023/04/19 01:22:50;;;;;;;12.65;9.82;;;;;;;7.74;100.00;102704.19;10395036;28;20060;-74
2023/04/19 01:27:50;;;;;;;13.00;10.60;;;;;;;7.78;100.00;102703.78;10410868;28;20038;-72
2023/04/19 01:32:50;;;;;;;16.45;9.57;;;;;;;7.78;100.00;102703.78;10412947;28;20041;-71
2023/04/19 01:37:54;;;;;;;12.23;10.07;;;;;;;7.79;100.00;102701.97;10411870;28;20033;-75
2023/04/19 01:42:54;;;;;;;20.27;10.15;;;;;;;7.68;100.00;102701.03;10411067;28;20033;-74
2023/04/19 01:47:55;;;;;;;16.60;10.38;;;;;;;7.65;100.00;102697.75;10411715;28;20045;-73
2023/04/19 01:52:56;;;;;;;12.18;9.15;;;;;;;7.63;100.00;102700.59;10410089;28;20080;-73
2023/04/19 01:57:56;;;;;;;18.38;10.30;;;;;;;7.58;100.00;102699.28;10376766;28;20040;-74
2023/04/19 02:02:57;;;;;;;12.38;9.05;;;;;;;7.45;100.00;102703.06;10410910;28;20045;-74
2023/04/19 02:07:57;;;;;;;11.80;9.70;;;;;;;7.35;100.00;102696.75;10411128;28;20041;-73
2023/04/19 02:12:57;;;;;;;13.43;9.13;;;;;;;7.33;100.00;102689.78;10393581;28;20641;-73
2023/04/19 02:17:59;;;;;;;19.48;11.50;;;;;;;7.36;100.00;102692.22;10411561;28;20050;-72
2023/04/19 02:22:59;;;;;;;17.83;10.82;;;;;;;7.29;100.00;102681.09;10412086;28;20124;-73
2023/04/19 02:28:00;;;;;;;11.23;8.07;;;;;;;7.35;100.00;102690.50;10410375;28;20096;-74
2023/04/19 02:33:00;;;;;;;12.48;11.00;;;;;;;7.35;100.00;102690.50;10410870;28;20045;-73
2023/04/19 02:38:01;;;;;;;17.35;12.05;;;;;;;7.39;100.00;102700.03;10411068;28;20125;-73
2023/04/19 02:43:03;;;;;;;17.33;12.52;;;;;;;7.51;100.00;102680.09;10409996;28;20033;-74
2023/04/19 02:48:03;;;;;;;12.65;11.10;;;;;;;7.66;100.00;102686.00;10392944;28;20029;-73
2023/04/19 02:53:04;;;;;;;20.02;10.52;;;;;;;7.88;100.00;102699.31;10410047;28;20037;-73
2023/04/19 02:58:04;;;;;;;12.85;8.65;;;;;;;8.02;100.00;102698.06;10391765;28;20038;-73
2023/04/19 03:03:06;;;;;;;16.13;11.40;;;;;;;8.14;100.00;102693.44;10392649;28;20140;-73
2023/04/19 03:08:06;;;;;;;14.18;10.82;;;;;;;8.21;100.00;102691.03;10409456;28;20139;-73
2023/04/19 03:13:06;;;;;;;11.68;10.52;;;;;;;8.29;100.00;102697.44;10410313;28;20037;-73
2023/04/19 03:18:07;;;;;;;11.75;9.48;;;;;;;8.33;100.00;102698.88;10417828;28;20493;-73
2023/04/19 03:23:07;;;;;;;22.80;12.10;;;;;;;8.38;100.00;102693.94;10420983;28;20037;-73
2023/04/19 03:28:08;;;;;;;13.32;10.23;;;;;;;8.48;100.00;102685.00;10417384;28;20037;-73
2023/04/19 03:33:08;;;;;;;16.13;10.52;;;;;;;8.50;100.00;102689.28;10416540;28;20299;-74
2023/04/19 03:38:08;;;;;;;15.38;10.48;;;;;;;8.52;100.00;102681.91;10417190;28;20029;-74
2023/04/19 03:43:09;;;;;;;11.95;9.90;;;;;;;8.59;100.00;102684.88;10398745;28;20064;-73
2023/04/19 03:48:09;;;;;;;10.55;9.48;;;;;;;8.67;100.00;102689.56;10416057;28;20038;-74
2023/04/19 03:53:10;;;;;;;14.82;11.10;;;;;;;8.71;100.00;102678.38;10416530;28;20033;-73
2023/04/19 03:58:10;;;;;;;12.23;9.30;;;;;;;8.75;100.00;102687.88;10414123;28;20188;-73
2023/04/19 04:03:11;;;;;;;12.25;9.50;;;;;;;8.73;100.00;102683.59;10397914;28;20076;-74
2023/04/19 04:08:12;;;;;;;12.93;10.50;;;;;;;8.81;100.00;102675.66;10414088;28;20061;-73
2023/04/19 04:13:13;;;;;;;11.60;9.20;;;;;;;8.85;100.00;102685.19;10413858;28;20053;-74
2023/04/19 04:18:13;;;;;;;13.20;9.93;;;;;;;8.90;100.00;102693.69;10354226;28;20065;-74
2023/04/19 04:23:14;;;;;;;15.75;9.85;;;;;;;8.89;100.00;102700.09;10355864;28;20127;-73
2023/04/19 04:28:14;;;;;;;13.68;11.35;;;;;;;8.85;100.00;102698.69;10372587;28;20037;-73
2023/04/19 04:33:15;;;;;;;16.73;9.13;;;;;;;8.82;100.00;102696.28;10374019;28;20066;-73
2023/04/19 04:38:15;;;;;;;16.20;10.63;;;;;;;8.83;100.00;102695.25;10372948;28;20029;-73
2023/04/19 04:43:15;;;;;;;14.57;10.27;;;;;;;8.88;100.00;102701.09;10370145;28;20057;-73
2023/04/19 04:48:16;;;;;;;16.08;10.85;;;;;;;8.97;100.00;102705.66;10372561;28;20069;-74
2023/04/19 04:53:16;;;;;;;15.45;10.10;;;;;;;9.03;100.00;102717.72;10355238;28;20060;-73
2023/04/19 04:58:17;;;;;;;12.02;9.63;;;;;;;9.07;100.00;102720.00;10372000;28;20038;-71
2023/04/19 05:03:18;;;;;;;12.80;10.65;;;;;;;9.06;100.00;102728.25;10372020;28;20065;-73
2023/04/19 05:08:19;;;;;;;14.70;9.98;;;;;;;9.11;100.00;102717.88;10372021;28;20092;-72
2023/04/19 05:13:19;;;;;;;14.82;9.55;;;;;;;9.14;100.00;102719.44;10354779;28;20474;-71
2023/04/19 05:18:19;;;;;;;10.82;8.65;;;;;;;9.24;100.00;102712.16;10399135;28;20083;-73
2023/04/19 05:23:20;;;;;;;9.63;8.50;;;;;;;9.28;100.00;102708.16;10394314;28;20044;-73
2023/04/19 05:28:20;;;;;;;9.43;7.93;;;;;;;9.25;100.00;102727.38;10411185;28;20037;-73
2023/04/19 05:33:21;;;;;;;15.80;9.38;;;;;;;9.03;100.00;102728.53;10412097;28;20544;-73
2023/04/19 05:38:21;;;;;;;10.75;8.75;;;;;;;8.97;100.00;102719.16;10410628;28;20077;-72
2023/04/19 05:43:21;;;;;;;12.30;8.48;;;;;;;8.95;100.00;102723.84;10410900;28;20029;-73
2023/04/19 05:48:22;;;;;;;12.85;10.02;;;;;;;9.65;100.00;102727.16;10411519;28;20443;-73
2023/04/19 05:53:22;;;;;;;8.57;7.60;;;;;;;10.46;100.00;102721.13;10376653;28;20056;-72
2023/04/19 05:58:23;;;;;;;10.02;7.88;;;;;;;10.94;100.00;102733.47;10409853;28;20080;-74
2023/04/19 06:03:23;;;;;;;10.77;7.40;;;;;;;11.35;100.00;102731.13;10393297;28;20319;-72
2023/04/19 06:08:24;;;;;;;9.82;7.38;;;;;;;11.27;100.00;102734.63;10410802;28;20096;-73
2023/04/19 06:13:24;;;;;;;10.55;7.82;;;;;;;11.47;99.81;102727.16;10392824;28;20136;-73
2023/04/19 06:18:25;;;;;;;14.07;7.78;;;;;;;11.53;95.54;102720.25;10410523;28;20057;-73
2023/04/19 06:23:25;;;;;;;11.90;8.15;;;;;;;11.76;92.52;102728.69;10409206;28;20041;-73
2023/04/19 06:28:26;;;;;;;15.10;8.32;;;;;;;11.86;91.22;102735.72;10409646;28;20049;-74
2023/04/19 06:33:26;;;;;;;9.23;7.10;;;;;;;11.84;87.73;102739.63;10409921;28;20033;-73
2023/04/19 06:38:27;;;;;;;10.40;7.85;;;;;;;12.15;85.63;102739.94;10410072;28;20389;-73
2023/04/19 06:43:27;;;;;;;6.95;6.18;;;;;;;12.31;83.50;102740.00;10409600;28;20033;-72
2023/04/19 06:48:27;;;;;;;9.20;5.78;;;;;;;12.41;81.36;102744.47;10414241;28;20038;-73
2023/04/19 06:53:28;;;;;;;8.05;6.55;;;;;;;12.56;77.08;102724.66;10417089;28;20536;-73
2023/04/19 06:58:28;;;;;;;9.85;7.30;;;;;;;12.62;77.51;102744.88;10417532;28;20029;-73
2023/04/19 07:03:29;;;;;;;7.13;6.40;;;;;;;12.64;71.96;102769.19;10416547;28;20040;-73
2023/04/19 07:08:29;;;;;;;9.57;6.82;;;;;;;12.60;72.65;102756.94;10415991;28;20045;-72
2023/04/19 07:13:30;;;;;;;7.43;6.00;;;;;;;13.09;69.25;102733.41;10399384;28;20044;-74
2023/04/19 07:18:30;;;;;;;7.32;6.20;;;;;;;13.28;65.46;102748.56;10416440;28;20493;-73
2023/04/19 07:23:30;;;;;;;8.85;5.97;;;;;;;13.34;63.51;102741.59;10417581;28;20034;-73
2023/04/19 07:28:31;;;;;;;7.35;5.40;;;;;;;13.90;60.70;102739.78;10399302;28;20033;-73
2023/04/19 07:33:31;;;;;;;7.43;6.50;;;;;;;14.14;57.97;102742.44;10416735;28;20071;-73
2023/04/19 07:38:32;;;;;;;9.73;5.68;;;;;;;14.18;58.76;102734.78;10414826;28;20045;-73
2023/04/19 07:43:32;;;;;;;7.25;5.43;;;;;;;14.45;57.98;102725.25;10416281;28;20401;-73
2023/04/19 07:48:33;;;;;;;6.43;5.82;;;;;;;14.83;54.51;102717.22;10414525;28;20033;-73
2023/04/19 07:53:33;;;;;;;9.55;6.68;;;;;;;14.91;52.72;102717.19;10415802;28;20072;-73
2023/04/19 07:58:34;;;;;;;13.35;5.43;;;;;;;15.39;53.42;102706.03;10414080;28;20037;-72
2023/04/19 08:03:35;;;;;;;6.97;6.28;;;;;;;15.37;50.51;102708.94;10415447;28;20038;-73
2023/04/19 08:08:36;;;;;;;10.88;5.97;;;;;;;15.49;50.45;102712.91;10415149;28;20033;-73
2023/04/19 08:13:36;;;;;;;8.80;5.90;;;;;;;15.30;50.35;102713.44;10414989;28;20038;-73
2023/04/19 08:18:36;;;;;;;5.50;4.97;;;;;;;15.54;48.90;102709.63;10402609;28;20088;-73
2023/04/19 08:23:37;;;;;;;9.73;5.07;;;;;;;15.66;47.55;102702.66;10414801;28;20038;-73
2023/04/19 08:28:37;;;;;;;7.60;4.95;;;;;;;15.84;47.54;102696.03;10412534;28;20103;-73
2023/04/19 08:33:38;;;;;;;5.05;4.20;;;;;;;15.77;47.10;102707.69;10413910;28;20046;-73
2023/04/19 08:38:38;;;;;;;4.93;4.22;;;;;;;16.14;45.73;102700.41;10413957;28;20038;-73
2023/04/19 08:43:38;;;;;;;5.88;5.10;;;;;;;16.61;45.78;102707.28;10414412;28;20029;-73
2023/04/19 08:48:39;;;;;;;5.47;4.22;;;;;;;16.54;45.22;102703.63;10412401;28;20037;-73
2023/04/19 08:53:39;;;;;;;6.88;5.40;;;;;;;16.40;44.73;102699.03;10412325;28;20041;-73
2023/04/19 08:58:40;;;;;;;8.05;4.13;;;;;;;16.46;44.43;102698.28;10411479;28;20036;-74
2023/04/19 09:03:46;;;;;;;6.78;5.07;;;;;;;16.74;43.48;102701.13;10413708;28;20124;-74
2023/04/19 09:08:47;;;;;;;9.15;4.78;;;;;;;16.72;42.75;102700.47;10411676;28;20038;-74
2023/04/19 09:13:47;;;;;;;3.28;2.97;;;;;;;17.02;43.99;102693.00;10411501;28;20048;-72
2023/04/19 09:18:58;;;;;;;5.40;4.50;;;;;;;17.65;41.26;102693.91;10427286;28;20061;-73
2023/04/19 09:23:59;;;;;;;4.80;4.40;;;;;;;17.44;40.30;102691.25;10412149;28;20068;-73
2023/04/19 09:29:04;;;;;;;10.77;4.50;;;;;;;17.26;38.77;102689.00;10410297;28;20169;-74
2023/04/19 09:34:14;;;;;;;4.55;3.78;;;;;;;17.03;39.60;102693.84;10411642;28;20071;-73
2023/04/19 09:39:31;;;;;;;4.55;3.65;;;;;;;17.08;38.79;102694.97;10427038;28;20042;-73
2023/04/19 09:44:33;;;;;;;8.65;3.65;;;;;;;17.12;37.60;102685.28;10410126;28;20095;-74
2023/04/19 09:49:34;;;;;;;5.47;4.45;;;;;;;17.15;37.78;102667.63;10412022;28;20072;-72
2023/04/19 09:54:34;;;;;;;6.38;3.63;;;;;;;17.64;37.17;102663.97;10411232;28;20497;-73
2023/04/19 09:59:35;;;;;;;3.78;3.40;;;;;;;17.66;35.40;102683.81;10409609;28;20042;-73
2023/04/19 10:04:36;;;;;;;4.22;3.85;;;;;;;17.29;36.43;102671.31;10409806;28;20057;-72
2023/04/19 10:09:36;;;;;;;3.58;3.28;;;;;;;17.82;35.97;102664.31;10425577;28;20539;-74
2023/04/19 10:14:37;;;;;;;7.22;3.40;;;;;;;17.71;34.48;102659.41;10409174;28;20040;-72
2023/04/19 10:19:37;;;;;;;6.15;2.80;;;;;;;17.48;35.60;102656.91;10424933;28;20053;-73
2023/04/19 10:24:38;;;;;;;8.35;3.40;;;;;;;17.54;34.50;102656.13;10425225;28;20538;-73
2023/04/19 10:29:50;;;;;;;3.70;3.40;;;;;;;17.56;34.23;102655.94;10410208;28;20041;-73
2023/04/19 10:34:53;;;;;;;3.40;3.10;;;;;;;17.22;35.08;102656.75;10410363;28;20044;-73
2023/04/19 10:39:53;;;;;;;4.50;2.92;;;;;;;17.35;34.68;102637.66;10425057;28;20522;-73
2023/04/19 10:45:31;;;;;;;3.17;2.50;;;;;;;17.69;34.41;102657.91;10409649;28;20087;-73
2023/04/19 10:51:09;;;;;;;2.45;2.20;;;;;;;17.85;33.25;102649.38;10409606;28;20076;-73
2023/04/19 10:56:10;;;;;;;3.20;2.85;;;;;;;18.04;32.77;102647.78;10406936;28;20056;-73
2023/04/19 11:01:38;;;;;;;2.40;2.20;;;;;;;17.82;32.50;102639.66;10408027;28;20047;-73
2023/04/19 11:06:51;;;;;;;2.40;2.28;;;;;;;18.21;32.79;102640.88;10409609;28;20512;-73
2023/04/19 11:11:52;;;;;;;2.28;2.08;;;;;;;17.83;31.50;102645.97;10408959;28;20033;-73
2023/04/19 11:16:52;;;;;;;3.22;1.73;;;;;;;17.46;32.31;102644.50;10409007;28;20517;-73
2023/04/19 11:21:52;;;;;;;6.45;2.85;;;;;;;17.31;32.21;102642.69;10391319;28;20107;-73
2023/04/19 11:26:54;;;;;;;6.78;2.58;;;;;;;17.22;32.87;102632.94;10407693;28;20037;-73
2023/04/19 11:31:55;;;;;;;2.63;2.42;;;;;;;17.49;33.08;102633.13;10391588;28;20112;-73
2023/04/19 11:36:55;;;;;;;2.22;1.60;;;;;;;17.65;31.06;102616.38;10380617;28;20036;-73
2023/04/19 11:41:56;;;;;;;7.38;2.10;;;;;;;17.58;31.70;102605.38;10399414;28;20038;-73
2023/04/19 11:47:01;;;;;;;2.83;2.63;;;;;;;17.95;33.19;102605.97;10416355;28;20059;-73
2023/04/19 11:52:04;;;;;;;2.25;2.10;;;;;;;18.56;31.26;102596.84;10414484;28;20053;-73
2023/04/19 11:57:05;;;;;;;2.88;2.60;;;;;;;18.09;32.26;102601.38;10397696;28;20033;-73
2023/04/19 12:02:07;;;;;;;2.70;2.15;;;;;;;18.42;32.03;102596.00;10397069;28;20040;-73
2023/04/19 12:07:09;;;;;;;3.35;2.22;;;;;;;18.27;32.42;102598.06;10397878;28;20428;-72
2023/04/19 12:12:09;;;;;;;2.70;2.10;;;;;;;18.25;33.05;102573.59;10414466;28;20041;-73
2023/04/19 12:17:11;;;;;;;2.30;2.20;;;;;;;18.55;30.03;102573.22;10413083;28;20489;-73
2023/04/19 12:22:13;;;;;;;1.52;1.48;;;;;;;18.17;30.57;102564.72;10413351;28;20049;-72
2023/04/19 12:27:16;;;;;;;1.98;1.88;;;;;;;17.78;29.36;102556.19;10396949;28;20212;-73
2023/04/19 12:32:16;;;;;;;2.83;2.17;;;;;;;18.02;30.12;102553.91;10413960;28;20114;-73
2023/04/19 12:37:17;;;;;;;1.70;1.60;;;;;;;17.93;28.72;102571.59;10379882;28;20122;-72
2023/04/19 12:42:17;;;;;;;4.05;2.40;;;;;;;17.72;29.30;102553.38;10396518;28;20026;-73
2023/04/19 12:47:17;;;;;;;4.40;3.13;;;;;;;18.10;30.43;102546.34;10395524;28;20057;-72
2023/04/19 12:52:18;;;;;;;2.03;1.92;;;;;;;18.18;29.03;102566.41;10395685;28;20091;-73
2023/04/19 12:57:19;;;;;;;1.75;1.65;;;;;;;17.81;28.11;102539.31;10395535;28;20485;-73
2023/04/19 13:02:19;;;;;;;1.88;1.77;;;;;;;17.89;28.06;102544.59;10394906;28;20120;-73
2023/04/19 13:07:20;;;;;;;3.75;2.83;;;;;;;18.26;27.33;102522.34;10413193;28;20037;-73
2023/04/19 13:12:20;;;;;;;5.00;2.53;;;;;;;17.85;26.77;102532.38;10395513;28;20038;-73
2023/04/19 13:17:21;;;;;;;7.35;2.97;;;;;;;17.85;27.72;102528.78;10412190;28;20532;-73
2023/04/19 13:22:21;;;;;;;2.50;2.40;;;;;;;18.39;27.47;102513.28;10412730;28;20088;-73
2023/04/19 13:27:21;;;;;;;6.70;2.45;;;;;;;18.07;27.41;102518.53;10394264;28;20040;-73
2023/04/19 13:32:22;;;;;;;3.97;2.80;;;;;;;18.26;28.51;102490.28;10411953;28;20072;-73
2023/04/19 13:37:22;;;;;;;3.53;3.22;;;;;;;18.48;28.30;102474.47;10394127;28;20025;-73
2023/04/19 13:42:23;;;;;;;3.25;3.03;;;;;;;18.53;29.11;102473.81;10411454;28;20049;-73
2023/04/19 13:47:23;;;;;;;2.50;2.28;;;;;;;18.38;28.58;102495.13;10411603;28;20034;-73
2023/04/19 13:52:23;;;;;;;3.10;2.83;;;;;;;17.75;28.90;102479.00;10411215;28;20029;-73
2023/04/19 13:57:24;;;;;;;2.25;2.10;;;;;;;18.19;28.10;102475.72;10392645;28;20033;-73
2023/04/19 14:02:24;;;;;;;2.78;2.33;;;;;;;17.26;29.15;102474.56;10410504;28;20115;-73
2023/04/19 14:07:25;;;;;;;2.80;2.60;;;;;;;17.56;29.63;102453.22;10392732;28;20038;-73
2023/04/19 14:12:25;;;;;;;3.25;2.83;;;;;;;17.70;30.01;102456.84;10409562;28;20045;-73
2023/04/19 14:17:26;;;;;;;3.15;2.90;;;;;;;17.26;30.82;102452.69;10408958;28;20064;-73
2023/04/19 14:22:27;;;;;;;3.15;2.85;;;;;;;17.11;30.41;102434.53;10393107;28;20045;-72
2023/04/19 14:27:28;;;;;;;3.85;3.42;;;;;;;16.68;30.62;102442.88;10410324;28;20037;-73
2023/04/19 14:32:28;;;;;;;8.48;3.50;;;;;;;16.80;31.93;102445.09;10409959;28;20099;-72
2023/04/19 14:37:28;;;;;;;4.82;3.33;;;;;;;17.01;32.04;102435.94;10410097;28;20030;-73
2023/04/19 14:42:29;;;;;;;2.78;2.50;;;;;;;17.13;30.70;102434.31;10392333;28;20034;-73
2023/04/19 14:47:29;;;;;;;3.20;2.65;;;;;;;16.81;31.36;102435.81;10392555;28;20041;-73
2023/04/19 14:52:30;;;;;;;2.88;2.58;;;;;;;16.41;31.98;102422.72;10409751;28;20110;-73
2023/04/19 14:57:30;;;;;;;3.05;2.65;;;;;;;16.89;33.46;102413.78;10408353;28;20230;-73
2023/04/19 15:02:31;;;;;;;2.75;2.55;;;;;;;16.26;31.71;102419.22;10409309;28;20113;-73
2023/04/19 15:07:31;;;;;;;2.90;2.63;;;;;;;15.64;32.76;102406.25;10376032;28;20112;-73
2023/04/19 15:12:31;;;;;;;3.38;2.58;;;;;;;15.04;32.68;102390.00;10417779;28;20037;-73
2023/04/19 15:17:32;;;;;;;3.15;2.95;;;;;;;14.89;33.52;102375.53;10418173;28;20049;-73
2023/04/19 15:22:32;;;;;;;3.70;3.40;;;;;;;14.82;36.25;102375.47;10417194;28;20038;-72
2023/04/19 15:27:33;;;;;;;2.90;2.67;;;;;;;14.37;37.91;102371.03;10416545;28;20112;-72
2023/04/19 15:32:35;;;;;;;2.22;2.13;;;;;;;14.28;39.31;102375.69;10398540;28;20030;-73
2023/04/19 15:37:37;;;;;;;4.13;2.67;;;;;;;14.07;38.67;102372.84;10416534;28;20041;-72
2023/04/19 15:42:37;;;;;;;3.17;2.45;;;;;;;13.94;38.43;102378.91;10398713;28;20041;-73
2023/04/19 15:47:38;;;;;;;4.95;2.47;;;;;;;13.82;39.19;102375.81;10414951;28;20033;-73
2023/04/19 15:52:38;;;;;;;2.47;2.08;;;;;;;13.73;40.19;102366.00;10414846;28;20044;-72
2023/04/19 15:57:38;;;;;;;18.52;2.90;;;;;;;13.72;39.89;102365.16;10415354;28;20048;-73
2023/04/19 16:02:39;;;;;;;2.55;2.35;;;;;;;13.63;41.18;102366.25;10397842;28;20404;-73
2023/04/19 16:07:41;;;;;;;3.13;2.83;;;;;;;13.58;40.85;102379.53;10414246;28;20068;-72
2023/04/19 16:12:43;;;;;;;2.85;2.65;;;;;;;13.51;41.49;102359.53;10414932;28;20503;-72
2023/04/19 16:17:43;;;;;;;6.35;3.05;;;;;;;13.46;42.21;102357.38;10415666;28;20050;-72
2023/04/19 16:22:43;;;;;;;9.32;2.58;;;;;;;13.33;42.66;102342.66;10396706;28;20501;-72
2023/04/19 16:27:44;;;;;;;5.80;3.42;;;;;;;13.26;43.36;102367.00;10415096;28;20057;-72
2023/04/19 16:32:45;;;;;;;4.28;3.50;;;;;;;13.30;44.21;102352.00;10396129;28;20042;-72
2023/04/19 16:37:45;;;;;;;3.17;2.70;;;;;;;13.25;45.04;102343.56;10414187;28;20037;-72
2023/04/19 16:42:46;;;;;;;3.30;2.97;;;;;;;13.25;45.06;102347.13;10397015;28;20119;-72
2023/04/19 16:47:46;;;;;;;3.60;2.88;;;;;;;13.12;46.01;102355.00;10414421;28;20073;-73
2023/04/19 16:52:47;;;;;;;4.38;3.60;;;;;;;12.93;47.68;102359.00;10412215;28;20398;-72
2023/04/19 16:57:48;;;;;;;3.40;3.10;;;;;;;12.85;49.13;102358.19;10413195;28;20030;-73
2023/04/19 17:02:48;;;;;;;3.63;3.28;;;;;;;12.78;50.16;102358.88;10412984;28;20042;-72
2023/04/19 17:07:49;;;;;;;3.83;3.10;;;;;;;12.64;51.45;102346.06;10411969;28;20069;-73
2023/04/19 17:12:50;;;;;;;6.43;5.00;;;;;;;12.50;52.69;102344.88;10412883;28;20132;-72
2023/04/19 17:17:50;;;;;;;3.38;3.08;;;;;;;12.39;54.27;102350.72;10394521;28;20060;-72
2023/04/19 17:22:50;;;;;;;3.85;3.40;;;;;;;12.23;55.58;102338.03;10412215;28;20537;-72
2023/04/19 17:27:51;;;;;;;4.60;3.67;;;;;;;12.16;56.36;102328.03;10410953;28;20044;-72
2023/04/19 17:32:51;;;;;;;10.25;3.13;;;;;;;12.02;58.07;102316.84;10410750;28;20061;-72
2023/04/19 17:37:52;;;;;;;4.68;3.92;;;;;;;11.88;59.32;102324.84;10411825;28;20396;-72
2023/04/19 17:42:52;;;;;;;11.82;5.50;;;;;;;11.79;60.78;102324.81;10411640;28;20056;-72
2023/04/19 17:47:53;;;;;;;6.75;4.95;;;;;;;11.74;61.90;102334.47;10411550;28;20041;-73
2023/04/19 17:52:54;;;;;;;15.75;4.70;;;;;;;11.55;63.83;102319.38;10411287;28;20029;-73
2023/04/19 17:57:54;;;;;;;7.78;4.95;;;;;;;11.46;63.89;102332.09;10411678;28;20037;-73
2023/04/19 18:02:55;;;;;;;4.55;4.03;;;;;;;11.35;64.96;102346.81;10410719;28;20220;-72
2023/04/19 18:07:55;;;;;;;12.35;5.25;;;;;;;11.22;66.64;102346.47;10411309;28;20037;-72
2023/04/19 18:12:56;;;;;;;10.52;4.20;;;;;;;11.11;67.19;102335.94;10410767;28;20033;-73
2023/04/19 18:17:56;;;;;;;6.47;4.43;;;;;;;10.95;69.40;102350.31;10392666;28;20080;-73
2023/04/19 18:22:58;;;;;;;8.27;5.28;;;;;;;10.87;69.62;102347.56;10392915;28;20037;-72
2023/04/19 18:27:59;;;;;;;7.53;4.82;;;;;;;10.80;68.18;102349.22;10410483;28;20095;-72
2023/04/19 18:32:59;;;;;;;5.43;4.68;;;;;;;10.68;68.56;102352.22;10410372;28;20462;-72
2023/04/19 18:38:00;;;;;;;7.88;4.13;;;;;;;10.45;74.01;102357.38;10410202;28;20036;-72
2023/04/19 18:43:01;;;;;;;5.78;5.15;;;;;;;10.38;74.34;102377.13;10421059;28;20037;-73
2023/04/19 18:48:01;;;;;;;4.40;4.00;;;;;;;10.29;73.09;102370.81;10432322;28;20060;-73
2023/04/19 18:53:02;;;;;;;10.00;4.88;;;;;;;10.16;76.92;102364.94;10429386;28;20449;-72
2023/04/19 18:58:02;;;;;;;6.70;4.68;;;;;;;9.99;78.18;102369.41;10435180;28;20034;-72
2023/04/19 19:03:02;;;;;;;8.50;4.53;;;;;;;9.91;78.57;102377.44;10437360;28;20045;-72
2023/04/19 19:08:03;;;;;;;4.25;3.83;;;;;;;9.80;78.53;102383.97;10437389;28;20037;-72
2023/04/19 19:13:04;;;;;;;3.75;3.45;;;;;;;9.74;79.53;102387.28;10435293;28;20037;-73
2023/04/19 19:18:05;;;;;;;4.20;3.40;;;;;;;9.67;78.91;102388.91;10422758;28;20057;-73
2023/04/19 19:23:05;;;;;;;6.63;3.85;;;;;;;9.54;79.67;102392.00;10429310;28;20519;-72
2023/04/19 19:28:05;;;;;;;35.33;4.00;;;;;;;9.50;78.79;102386.03;10438690;28;20044;-72
2023/04/19 19:33:06;;;;;;;3.47;3.17;;;;;;;9.45;77.20;102388.38;10435723;28;20153;-71
2023/04/19 19:38:06;;;;;;;21.25;4.72;;;;;;;9.37;77.39;102396.38;10423010;28;20037;-70
2023/04/19 19:43:07;;;;;;;7.80;4.25;;;;;;;9.39;75.72;102388.97;10437496;28;20064;-72
2023/04/19 19:48:08;;;;;;;5.22;3.30;;;;;;;9.35;77.25;102387.59;10439841;28;20537;-72
2023/04/19 19:53:08;;;;;;;3.25;2.85;;;;;;;9.26;80.27;102405.56;10436586;28;20072;-71
2023/04/19 19:58:08;;;;;;;5.82;4.07;;;;;;;9.17;81.76;102409.19;10435024;28;20045;-72
2023/04/19 20:03:09;;;;;;;7.10;3.22;;;;;;;9.16;81.93;102412.91;10419446;28;20033;-71
2023/04/19 20:08:11;;;;;;;5.30;3.65;;;;;;;9.19;80.17;102412.59;10425372;28;20128;-69
2023/04/19 20:13:11;;;;;;;7.97;3.30;;;;;;;9.05;83.12;102418.47;10393839;28;20041;-72
2023/04/19 20:18:12;;;;;;;4.50;2.72;;;;;;;8.97;85.39;102418.41;10435413;28;20211;-71
2023/04/19 20:23:13;;;;;;;6.32;3.17;;;;;;;8.97;84.52;102415.69;10433137;28;20154;-71
2023/04/19 20:28:14;;;;;;;4.45;3.83;;;;;;;8.93;83.90;102414.28;10433795;28;20045;-72
2023/04/19 20:33:14;;;;;;;6.03;4.30;;;;;;;8.89;84.76;102423.69;10434240;28;20502;-72
2023/04/19 20:38:15;;;;;;;10.68;4.30;;;;;;;8.75;88.74;102430.44;10431350;28;20380;-72
2023/04/19 20:43:15;;;;;;;5.32;3.65;;;;;;;8.75;89.63;102433.97;10435101;28;20108;-72
2023/04/19 20:48:16;;;;;;;6.40;3.80;;;;;;;8.71;90.73;102429.88;10430512;28;20033;-73
2023/04/19 20:53:16;;;;;;;8.88;3.63;;;;;;;8.65;92.28;102432.28;10435552;28;20044;-71
2023/04/19 20:58:17;;;;;;;4.55;4.15;;;;;;;8.70;90.05;102438.97;10433453;28;20537;-72
2023/04/19 21:03:17;;;;;;;5.30;3.75;;;;;;;8.66;88.73;102431.31;10406152;28;20034;-73
2023/04/19 21:08:18;;;;;;;4.57;3.60;;;;;;;8.68;87.33;102438.28;10431044;28;20044;-71
2023/04/19 21:13:18;;;;;;;6.43;3.25;;;;;;;8.61;81.94;102437.13;10432550;28;20560;-72
2023/04/19 21:18:19;;;;;;;4.63;3.25;;;;;;;8.68;77.26;102437.41;10453407;28;20053;-72
2023/04/19 21:23:19;;;;;;;2.92;2.72;;;;;;;8.70;72.54;102451.63;10416204;28;20037;-72
2023/04/19 21:28:19;;;;;;;5.38;2.65;;;;;;;8.71;69.53;102445.22;10395078;28;20449;-72
2023/04/19 21:33:20;;;;;;;4.90;3.35;;;;;;;8.64;69.16;102450.34;10411828;28;20041;-73
2023/04/19 21:38:20;;;;;;;3.05;2.72;;;;;;;8.59;67.70;102444.56;10394649;28;20041;-72
2023/04/19 21:43:21;;;;;;;3.38;3.03;;;;;;;8.57;66.49;102446.53;10413027;28;20405;-73
2023/04/19 21:48:22;;;;;;;5.78;4.05;;;;;;;8.50;64.29;102443.59;10393668;28;20095;-72
2023/04/19 21:53:22;;;;;;;4.57;3.22;;;;;;;8.43;62.69;102455.13;10412197;28;20037;-72
2023/04/19 21:58:23;;;;;;;3.85;3.53;;;;;;;8.40;60.90;102440.06;10417274;28;20036;-73
2023/04/19 22:03:23;;;;;;;4.38;3.40;;;;;;;8.27;58.50;102456.53;10434586;28;20461;-72
2023/04/19 22:08:23;;;;;;;3.53;3.22;;;;;;;8.23;57.82;102459.63;10452112;28;20038;-73
2023/04/19 22:13:24;;;;;;;4.72;2.95;;;;;;;8.20;57.04;102459.94;10434637;28;20041;-73
2023/04/19 22:18:24;;;;;;;4.57;3.08;;;;;;;8.10;56.04;102459.94;10451117;28;20143;-73
2023/04/19 22:23:25;;;;;;;3.65;3.13;;;;;;;8.05;53.92;102457.69;10451607;28;20084;-73
2023/04/19 22:28:25;;;;;;;2.60;2.40;;;;;;;8.03;53.68;102458.81;10450355;28;20516;-73
2023/04/19 22:33:26;;;;;;;5.15;3.45;;;;;;;7.98;52.20;102448.47;10433222;28;20039;-73
2023/04/19 22:38:26;;;;;;;3.38;3.13;;;;;;;7.94;51.80;102449.72;10433370;28;20032;-73
2023/04/19 22:43:27;;;;;;;4.03;3.17;;;;;;;7.84;51.19;102454.28;10433930;28;20045;-73
2023/04/19 22:48:28;;;;;;;7.80;2.97;;;;;;;7.81;51.57;102441.06;10451269;28;20461;-72
2023/04/19 22:53:29;;;;;;;5.57;2.97;;;;;;;7.64;51.56;102435.38;10434228;28;20486;-73
2023/04/19 22:58:30;;;;;;;4.97;3.13;;;;;;;7.57;51.20;102428.84;10452188;28;20037;-72